Time;durP1;ratioP1;P1;durP2;ratioP2;P2;SDS_P1;SDS_P2;PMS_P1;PMS_P2;Temp;Humidity;BMP_temperature;BMP_pressure;BME280_temperature;BME280_humidity;BME280_pressure;Samples;Min_cycle;Max_cycle;Signal;HPM_P1;HPM_P2
2022/06/02 00:01:22;;;;;;;;;29.25;26.00;26.30;99.90;;;;;;5039868;28;8737;-68
2022/06/02 00:04:01;;;;;;;;;28.50;25.75;26.20;99.90;;;;;;5021746;28;8793;-68
2022/06/02 00:06:52;;;;;;;;;25.25;22.50;26.20;99.90;;;;;;5021728;28;8737;-67
2022/06/02 00:09:28;;;;;;;;;32.20;29.20;26.20;99.90;;;;;;5039250;28;9321;-67
2022/06/02 00:11:58;;;;;;;;;23.40;19.60;26.30;99.90;;;;;;5039371;28;8757;-67
2022/06/02 00:14:47;;;;;;;;;26.00;23.20;26.40;99.90;;;;;;5021068;28;8765;-67
2022/06/02 00:17:43;;;;;;;;;25.75;21.25;26.50;99.90;;;;;;5005461;28;8771;-68
2022/06/02 00:20:18;;;;;;;;;27.75;25.75;26.60;99.90;;;;;;5023923;28;8753;-67
2022/06/02 00:23:08;;;;;;;;;26.00;23.00;26.60;99.90;;;;;;5039271;28;8784;-68
2022/06/02 00:25:35;;;;;;;;;26.00;21.80;26.70;99.90;;;;;;5037943;28;8831;-68
2022/06/02 00:28:08;;;;;;;;;24.75;22.00;26.80;99.90;;;;;;5038944;28;8761;-67
2022/06/02 00:30:58;;;;;;;;;29.50;23.50;26.80;99.90;;;;;;5020874;28;8761;-68
2022/06/02 00:33:48;;;;;;;;;24.75;22.75;26.90;99.90;;;;;;5011252;28;8787;-67
2022/06/02 00:36:18;;;;;;;;;29.75;23.75;26.90;99.90;;;;;;5020853;28;8811;-67
2022/06/02 00:38:44;;;;;;;;;32.25;25.50;26.90;99.90;;;;;;4997591;28;8807;-67
2022/06/02 00:41:46;;;;;;;;;27.20;25.20;27.00;99.90;;;;;;4998636;28;8774;-68
2022/06/02 00:44:44;;;;;;;;;26.00;24.00;27.10;99.90;;;;;;4957513;28;8809;-68
2022/06/02 00:47:32;;;;;;;;;27.75;26.00;27.00;99.90;;;;;;4978967;28;8779;-67
2022/06/02 00:50:08;;;;;;;;;30.50;27.00;27.10;99.90;;;;;;4979488;28;8772;-67
2022/06/02 00:52:59;;;;;;;;;27.25;25.25;27.20;99.90;;;;;;4979050;28;8780;-67
2022/06/02 00:59:02;;;;;;;;;22.40;19.00;27.40;99.90;;;;;;4990328;28;8848;-63
2022/06/02 01:01:33;;;;;;;;;19.40;16.00;28.80;99.90;;;;;;4997454;28;8823;-63
2022/06/02 01:04:04;;;;;;;;;13.00;13.00;29.00;99.90;;;;;;4998343;28;8820;-63
2022/06/02 01:07:06;;;;;;;;;18.60;16.80;28.40;99.90;;;;;;5013460;28;8761;-65
2022/06/02 01:09:58;;;;;;;;;21.80;18.00;29.10;99.90;;;;;;4998533;28;8778;-64
2022/06/02 01:12:28;;;;;;;;;22.20;16.00;28.90;99.90;;;;;;4998187;28;8853;-65
2022/06/02 01:15:13;;;;;;;;;15.60;15.20;29.20;99.90;;;;;;5013253;28;9824;-65
2022/06/02 01:18:01;;;;;;;;;24.00;18.80;28.60;99.90;;;;;;4998027;28;8777;-65
2022/06/02 01:20:52;;;;;;;;;18.60;13.60;28.60;99.90;;;;;;4998333;28;8868;-65
2022/06/02 01:23:37;;;;;;;;;18.60;16.80;29.00;99.90;;;;;;4998256;28;8844;-62
2022/06/02 01:26:22;;;;;;;;;15.60;11.80;29.00;99.90;;;;;;5013003;28;9448;-65
2022/06/02 01:29:20;;;;;;;;;18.40;14.20;28.40;99.90;;;;;;4997580;28;9086;-64
2022/06/02 01:31:54;;;;;;;;;15.40;12.80;28.90;99.90;;;;;;4996443;28;8782;-64
2022/06/02 01:34:33;;;;;;;;;17.80;16.60;29.10;99.90;;;;;;4997341;28;8804;-64
2022/06/02 01:37:38;;;;;;;;;18.20;16.00;29.10;99.90;;;;;;4999924;28;8779;-63
2022/06/02 01:40:09;;;;;;;;;18.80;15.00;29.10;99.90;;;;;;5010081;28;8751;-63
2022/06/02 01:43:05;;;;;;;;;23.20;16.00;29.80;99.90;;;;;;4991916;28;8831;-63
2022/06/02 01:45:57;;;;;;;;;19.00;16.20;29.50;99.90;;;;;;4992801;28;8788;-64
2022/06/02 01:48:59;;;;;;;;;17.60;14.40;28.90;99.90;;;;;;4978640;28;9559;-66
2022/06/02 01:51:29;;;;;;;;;16.80;11.00;29.50;99.90;;;;;;4913833;28;8904;-64
2022/06/02 01:54:13;;;;;;;;;18.00;16.20;29.80;99.90;;;;;;4978514;28;8776;-65
2022/06/02 01:56:49;;;;;;;;;18.60;15.80;29.20;99.90;;;;;;4962742;28;8764;-67
2022/06/02 01:59:40;;;;;;;;;18.40;13.60;29.50;99.90;;;;;;5013865;28;8874;-65
2022/06/02 02:02:19;;;;;;;;;20.60;16.20;29.60;99.90;;;;;;5016994;28;8731;-68
2022/06/02 02:05:13;;;;;;;;;21.00;15.00;29.40;99.90;;;;;;5016990;28;8743;-67
2022/06/02 02:07:44;;;;;;;;;15.40;15.00;29.70;99.90;;;;;;5032084;28;8824;-64
2022/06/02 02:10:44;;;;;;;;;23.80;17.80;29.90;99.90;;;;;;5018081;28;8759;-64
2022/06/02 02:13:25;;;;;;;;;19.80;15.20;30.30;99.90;;;;;;5008675;28;8781;-69
2022/06/02 02:16:13;;;;;;;;;12.20;10.00;30.30;99.90;;;;;;4996194;28;8782;-66
2022/06/02 02:19:04;;;;;;;;;18.00;17.40;30.20;99.90;;;;;;4997597;28;8788;-68
2022/06/02 02:21:50;;;;;;;;;19.60;17.40;29.70;99.90;;;;;;4997241;28;8754;-64
2022/06/02 02:24:34;;;;;;;;;18.20;16.40;29.90;99.90;;;;;;4997344;28;8800;-63
2022/06/02 02:27:25;;;;;;;;;19.00;13.80;30.00;99.90;;;;;;4997063;28;8777;-66
2022/06/02 02:30:08;;;;;;;;;20.20;15.00;30.60;99.90;;;;;;5009120;28;8835;-66
2022/06/02 02:32:44;;;;;;;;;18.20;15.00;30.40;99.90;;;;;;4977255;28;8772;-65
2022/06/02 02:35:13;;;;;;;;;7.40;6.00;30.80;99.90;;;;;;4992472;28;8772;-65
2022/06/02 02:37:47;;;;;;;;;17.80;12.20;30.30;99.90;;;;;;4992410;28;8863;-65
2022/06/02 02:40:35;;;;;;;;;13.20;12.40;31.00;99.90;;;;;;4977015;28;8768;-66
2022/06/02 02:43:30;;;;;;;;;17.60;11.40;30.60;99.90;;;;;;4997321;28;8892;-65
2022/06/02 02:46:04;;;;;;;;;22.20;14.60;30.80;99.90;;;;;;4984080;28;8804;-65
2022/06/02 02:48:30;;;;;;;;;18.40;15.40;30.50;99.90;;;;;;4995273;28;9330;-68
2022/06/02 02:51:13;;;;;;;;;9.20;2.20;30.50;99.90;;;;;;4997218;28;8785;-69
2022/06/02 02:53:59;;;;;;;;;12.40;12.40;31.40;99.90;;;;;;4997190;28;8766;-69
2022/06/02 02:56:39;;;;;;;;;15.20;13.40;30.70;99.90;;;;;;4996009;28;8749;-69
2022/06/02 02:59:36;;;;;;;;;20.20;13.60;30.40;99.90;;;;;;4996991;28;8778;-68
2022/06/02 03:02:27;;;;;;;;;12.00;10.60;30.90;99.90;;;;;;4996148;28;8765;-68
2022/06/02 03:04:59;;;;;;;;;20.00;16.00;30.50;99.90;;;;;;4996001;28;8845;-69
2022/06/02 03:07:26;;;;;;;;;20.20;12.60;31.30;99.90;;;;;;4995834;28;8781;-65
2022/06/02 03:10:11;;;;;;;;;16.00;13.80;30.70;99.90;;;;;;4996302;28;8746;-68
2022/06/02 03:13:12;;;;;;;;;15.00;13.40;31.00;99.90;;;;;;4997298;28;9454;-66
2022/06/02 03:15:40;;;;;;;;;11.20;6.20;31.70;99.90;;;;;;4999749;28;8801;-72
2022/06/02 03:18:24;;;;;;;;;15.00;12.60;31.60;99.90;;;;;;5000929;28;8761;-57
2022/06/02 03:21:15;;;;;;;;;16.00;12.60;31.60;99.90;;;;;;5000464;28;8762;-74
2022/06/02 03:24:28;;;;;;;;;12.80;9.20;31.40;99.90;;;;;;5014298;28;9438;-69
2022/06/02 03:27:32;;;;;;;;;10.60;10.20;31.80;99.90;;;;;;4998553;28;8781;-60
2022/06/02 03:30:17;;;;;;;;;10.60;10.60;31.80;99.90;;;;;;4995651;28;8760;-73
2022/06/02 03:33:08;;;;;;;;;16.20;10.60;31.10;99.90;;;;;;4979418;28;8756;-64
2022/06/02 03:36:02;;;;;;;;;15.60;9.00;32.50;99.90;;;;;;4972243;28;9476;-70
2022/06/02 03:38:53;;;;;;;;;14.40;11.60;32.50;99.90;;;;;;4975389;28;8764;-58
2022/06/02 03:41:30;;;;;;;;;13.40;10.40;32.60;99.90;;;;;;4981992;28;8752;-65
2022/06/02 03:44:16;;;;;;;;;20.20;12.40;32.30;99.90;;;;;;4991311;28;8835;-73
2022/06/02 03:46:48;;;;;;;;;11.00;10.00;31.80;99.90;;;;;;4997614;28;8774;-57
2022/06/02 03:49:30;;;;;;;;;12.80;9.00;31.80;99.90;;;;;;4999687;28;8777;-61
2022/06/02 03:52:27;;;;;;;;;8.20;6.00;32.30;99.90;;;;;;5013879;28;8791;-67
2022/06/02 03:55:08;;;;;;;;;10.20;8.00;32.60;99.90;;;;;;4999128;28;9414;-69
2022/06/02 03:57:56;;;;;;;;;17.60;12.60;32.00;99.90;;;;;;4999293;28;8793;-65
2022/06/02 04:00:29;;;;;;;;;11.20;9.40;31.80;99.90;;;;;;4999772;28;8758;-62
2022/06/02 04:03:04;;;;;;;;;9.20;8.00;31.90;99.90;;;;;;4998806;28;9454;-66
2022/06/02 04:05:43;;;;;;;;;12.40;9.20;32.60;99.90;;;;;;4998458;28;8766;-67
2022/06/02 04:08:42;;;;;;;;;25.80;12.00;33.20;99.90;;;;;;4998835;28;8896;-56
2022/06/02 04:11:17;;;;;;;;;11.20;8.80;33.10;99.90;;;;;;4999337;28;8794;-70
2022/06/02 04:14:07;;;;;;;;;15.00;11.00;32.50;99.90;;;;;;4996818;28;8800;-73
2022/06/02 04:16:43;;;;;;;;;17.80;10.80;32.20;99.90;;;;;;4998667;28;8947;-63
2022/06/02 04:22:39;;;;;;;;;15.00;11.20;33.00;99.90;;;;;;4998091;28;8777;-69
2022/06/02 04:25:26;;;;;;;;;14.00;12.00;33.20;99.90;;;;;;4999557;28;8769;-70
2022/06/02 04:28:00;;;;;;;;;20.60;13.60;33.50;99.90;;;;;;4999862;28;8766;-69
2022/06/02 04:30:48;;;;;;;;;11.40;6.20;33.30;99.90;;;;;;4999402;28;8784;-71
2022/06/02 04:33:17;;;;;;;;;9.00;8.00;32.70;99.90;;;;;;4998997;28;8820;-69
2022/06/02 04:36:08;;;;;;;;;11.80;11.00;32.70;99.90;;;;;;4996835;28;8757;-66
2022/06/02 04:39:11;;;;;;;;;10.40;7.60;32.30;99.90;;;;;;5010989;28;8789;-68
2022/06/02 04:42:07;;;;;;;;;13.40;10.60;32.70;99.90;;;;;;4997900;28;10147;-66
2022/06/02 04:45:06;;;;;;;;;10.20;6.20;32.60;99.90;;;;;;4994230;28;8791;-68
2022/06/02 04:47:35;;;;;;;;;12.00;9.60;33.00;99.90;;;;;;4959511;28;8800;-64
2022/06/02 04:50:17;;;;;;;;;13.60;10.40;33.30;99.90;;;;;;4977978;28;8893;-68
2022/06/02 04:53:05;;;;;;;;;15.00;11.00;33.30;99.90;;;;;;4946827;28;8776;-63
2022/06/02 04:55:59;;;;;;;;;10.80;8.80;33.20;99.90;;;;;;4978067;28;8802;-68
2022/06/02 04:58:41;;;;;;;;;14.60;11.80;33.10;99.90;;;;;;4989697;28;8887;-64
2022/06/02 05:01:46;;;;;;;;;10.60;9.40;33.40;99.90;;;;;;4983174;28;8765;-69
2022/06/02 05:04:38;;;;;;;;;12.80;9.60;33.40;99.90;;;;;;4977184;28;8787;-61
2022/06/02 05:07:08;;;;;;;;;9.60;8.40;32.90;99.90;;;;;;4979225;28;8772;-69
2022/06/02 05:10:08;;;;;;;;;13.20;8.80;32.70;99.90;;;;;;4978394;28;8790;-68
2022/06/02 05:12:53;;;;;;;;;17.60;13.80;32.80;99.90;;;;;;4997400;28;8908;-70
2022/06/02 05:15:44;;;;;;;;;19.00;13.20;32.90;99.90;;;;;;4997549;28;8852;-69
2022/06/02 05:18:27;;;;;;;;;14.40;7.60;33.40;99.90;;;;;;4998385;28;8844;-64
2022/06/02 05:21:09;;;;;;;;;10.00;9.20;33.40;99.60;;;;;;4998503;28;8856;-70
2022/06/02 05:23:53;;;;;;;;;17.60;11.60;33.70;99.50;;;;;;4998291;28;8809;-64
2022/06/02 05:26:31;;;;;;;;;14.00;11.60;33.40;99.30;;;;;;4998180;28;8786;-67
2022/06/02 05:29:24;;;;;;;;;16.80;13.60;32.60;99.80;;;;;;4998687;28;9429;-70
2022/06/02 05:32:17;;;;;;;;;12.80;11.00;32.80;99.90;;;;;;4988330;28;8781;-66
2022/06/02 05:34:52;;;;;;;;;13.20;10.60;33.10;99.90;;;;;;4997916;28;8781;-71
2022/06/02 05:37:38;;;;;;;;;11.00;10.50;33.00;99.90;;;;;;5010753;28;8841;-71
2022/06/02 05:40:17;;;;;;;;;14.60;11.80;32.70;99.90;;;;;;5020650;28;8744;-71
2022/06/02 05:42:45;;;;;;;;;13.20;9.00;33.50;99.90;;;;;;5037303;28;8777;-72
2022/06/02 05:45:23;;;;;;;;;7.80;5.60;33.80;99.80;;;;;;5037013;28;8792;-70
2022/06/02 05:48:10;;;;;;;;;17.25;12.50;33.70;99.90;;;;;;5037427;28;8779;-74
2022/06/02 05:50:51;;;;;;;;;12.50;10.25;33.70;99.40;;;;;;5035316;28;8777;-71
2022/06/02 05:53:24;;;;;;;;;13.50;10.50;33.80;99.90;;;;;;5020528;28;8793;-69
2022/06/02 05:56:03;;;;;;;;;5.80;3.00;33.40;99.90;;;;;;5035486;28;8750;-72
2022/06/02 05:58:50;;;;;;;;;14.40;10.40;34.00;99.40;;;;;;5036704;28;8771;-78
2022/06/02 06:01:46;;;;;;;;;17.75;12.75;33.20;99.90;;;;;;5019387;28;8749;-66
2022/06/02 06:04:40;;;;;;;;;14.00;12.20;33.80;99.40;;;;;;5022123;28;8838;-71
2022/06/02 06:07:27;;;;;;;;;15.60;11.40;34.70;98.70;;;;;;4992354;28;8768;-79
2022/06/02 06:10:09;;;;;;;;;14.40;12.00;34.20;98.50;;;;;;5022086;28;8761;-74
2022/06/02 06:12:45;;;;;;;;;11.20;11.00;34.40;98.70;;;;;;5037285;28;8765;-80
2022/06/02 06:15:30;;;;;;;;;14.75;12.50;34.30;97.70;;;;;;5037295;28;8777;-81
2022/06/02 06:18:28;;;;;;;;;13.40;11.20;34.20;99.50;;;;;;5036897;28;8773;-81
2022/06/02 06:21:13;;;;;;;;;11.40;10.00;34.10;98.90;;;;;;5022430;28;8767;-79
2022/06/02 06:24:06;;;;;;;;;15.00;10.00;33.90;97.90;;;;;;5036422;28;8773;-81
2022/06/02 06:27:03;;;;;;;;;10.80;8.20;34.50;97.80;;;;;;5020840;28;9490;-60
2022/06/02 06:29:58;;;;;;;;;14.60;10.20;34.20;97.10;;;;;;5036741;28;8765;-58
2022/06/02 06:33:02;;;;;;;;;16.20;11.20;34.10;97.10;;;;;;5009398;28;8776;-54
2022/06/02 06:35:31;;;;;;;;;14.75;12.50;34.20;97.30;;;;;;5032682;28;8761;-68
2022/06/02 06:38:24;;;;;;;;;13.00;10.40;33.40;98.40;;;;;;5036709;28;8769;-80
2022/06/02 06:40:57;;;;;;;;;15.80;12.60;33.90;98.10;;;;;;5036837;28;8745;-60
2022/06/02 06:44:05;;;;;;;;;11.40;9.60;34.40;97.20;;;;;;5037178;28;8737;-79
2022/06/02 06:46:53;;;;;;;;;12.00;10.00;34.50;97.00;;;;;;5016376;28;8819;-58
2022/06/02 06:49:33;;;;;;;;;11.20;9.20;34.40;96.10;;;;;;5043823;28;8784;-73
2022/06/02 06:52:26;;;;;;;;;10.00;10.00;34.20;96.50;;;;;;5043858;28;8777;-78
2022/06/02 06:55:02;;;;;;;;;15.80;12.20;34.40;97.00;;;;;;5028245;28;8768;-78
2022/06/02 06:57:39;;;;;;;;;16.50;12.00;33.70;98.20;;;;;;5042659;28;8809;-71
2022/06/02 07:00:29;;;;;;;;;16.25;11.75;33.20;97.60;;;;;;5025706;28;8749;-78
2022/06/02 07:03:31;;;;;;;;;10.75;8.75;33.00;97.00;;;;;;5010883;28;8823;-65
2022/06/02 07:06:22;;;;;;;;;15.80;12.00;32.90;97.80;;;;;;4972282;28;8879;-60
2022/06/02 07:09:09;;;;;;;;;14.00;11.60;33.10;97.80;;;;;;4970935;28;8757;-58
2022/06/02 07:14:43;;;;;;;;;14.00;12.50;32.90;98.20;;;;;;5027876;28;8773;-74
2022/06/02 07:17:38;;;;;;;;;13.80;13.00;32.80;98.40;;;;;;5043370;28;8887;-64
2022/06/02 07:20:12;;;;;;;;;17.00;12.40;33.00;97.80;;;;;;5027223;28;8879;-74
2022/06/02 07:22:47;;;;;;;;;14.40;10.20;32.90;97.60;;;;;;5041674;28;10754;-72
2022/06/02 07:25:44;;;;;;;;;14.75;11.00;32.90;97.70;;;;;;5024950;28;9512;-69
2022/06/02 07:28:50;;;;;;;;;18.60;13.40;32.80;97.70;;;;;;5040125;28;8738;-74
2022/06/02 07:31:33;;;;;;;;;14.00;10.80;32.70;98.20;;;;;;4932947;29;8925;-71
2022/06/02 07:34:18;;;;;;;;;17.25;13.75;32.60;98.30;;;;;;4943596;29;8756;-72
2022/06/02 07:37:11;;;;;;;;;10.80;10.60;32.60;99.20;;;;;;5014846;28;8867;-72
2022/06/02 07:40:10;;;;;;;;;17.75;13.75;32.50;99.80;;;;;;5037611;28;8796;-71
2022/06/02 07:42:47;;;;;;;;;15.60;12.60;32.60;99.10;;;;;;4989085;28;8866;-70
2022/06/02 07:45:37;;;;;;;;;12.00;8.00;32.60;98.90;;;;;;5042815;28;8784;-73
2022/06/02 07:48:25;;;;;;;;;12.80;11.40;32.70;99.20;;;;;;5026490;28;8784;-67
2022/06/02 07:51:11;;;;;;;;;13.75;13.25;32.90;99.60;;;;;;5024829;28;8791;-75
2022/06/02 07:53:59;;;;;;;;;16.75;13.25;33.00;99.10;;;;;;5040786;28;8800;-68
2022/06/02 07:56:54;;;;;;;;;15.50;12.75;32.80;98.70;;;;;;5041858;28;8772;-73
2022/06/02 07:59:42;;;;;;;;;15.50;11.75;32.70;98.60;;;;;;5023880;28;9132;-68
2022/06/02 08:02:18;;;;;;;;;16.00;12.00;32.70;98.40;;;;;;5039534;28;8954;-72
2022/06/02 08:05:09;;;;;;;;;15.75;11.00;32.70;98.60;;;;;;5029485;28;8815;-70
2022/06/02 08:07:52;;;;;;;;;13.80;12.40;32.70;99.50;;;;;;5038484;28;8870;-74
2022/06/02 08:10:50;;;;;;;;;14.20;11.60;32.50;99.30;;;;;;5040375;28;8777;-70
2022/06/02 08:13:38;;;;;;;;;19.40;13.20;32.60;98.30;;;;;;5039696;28;8769;-75
2022/06/02 08:16:09;;;;;;;;;14.00;12.00;32.60;98.40;;;;;;5039860;28;8797;-68
2022/06/02 08:18:57;;;;;;;;;13.80;13.00;32.70;99.10;;;;;;5038789;28;8838;-68
2022/06/02 08:21:49;;;;;;;;;12.00;8.75;32.60;98.80;;;;;;5021426;28;8894;-75
2022/06/02 08:24:37;;;;;;;;;13.50;10.50;32.60;99.10;;;;;;5005061;28;8789;-66
2022/06/02 08:27:40;;;;;;;;;17.60;13.40;32.60;98.80;;;;;;5024173;28;8799;-69
2022/06/02 08:30:16;;;;;;;;;16.25;13.25;32.50;99.90;;;;;;5019046;28;8758;-73
2022/06/02 08:32:43;;;;;;;;;17.00;13.40;32.40;99.20;;;;;;5017497;28;8775;-61
2022/06/02 08:35:25;;;;;;;;;14.40;12.40;32.30;99.50;;;;;;5018902;28;8790;-61
2022/06/02 08:38:24;;;;;;;;;22.50;13.00;32.40;98.80;;;;;;4998343;28;8758;-71
2022/06/02 08:41:33;;;;;;;;;19.25;15.00;32.50;98.90;;;;;;4967105;28;8761;-68
2022/06/02 08:44:29;;;;;;;;;15.80;13.20;32.40;99.60;;;;;;5014786;28;8853;-71
2022/06/02 08:47:08;;;;;;;;;15.00;13.75;32.50;98.90;;;;;;4985510;28;8801;-71
2022/06/02 08:50:10;;;;;;;;;16.00;13.50;32.40;98.80;;;;;;5019191;28;8763;-62
2022/06/02 08:52:49;;;;;;;;;17.60;12.80;32.40;99.70;;;;;;5018745;28;9534;-71
2022/06/02 08:55:35;;;;;;;;;14.60;12.00;32.30;99.20;;;;;;5019419;28;9446;-63
2022/06/02 08:58:18;;;;;;;;;16.60;13.80;32.40;99.20;;;;;;5034281;28;8821;-68
2022/06/02 09:01:09;;;;;;;;;12.80;10.00;32.40;99.00;;;;;;5017809;28;8791;-70
2022/06/02 09:04:00;;;;;;;;;10.75;9.75;32.30;99.30;;;;;;5018035;28;9356;-71
2022/06/02 09:06:57;;;;;;;;;22.20;15.00;32.70;99.90;;;;;;5018861;28;8762;-70
2022/06/02 09:09:42;;;;;;;;;12.00;10.80;33.60;99.70;;;;;;5017404;28;8780;-69
2022/06/02 09:12:27;;;;;;;;;16.60;12.60;33.40;99.50;;;;;;5018335;28;8759;-70
2022/06/02 09:15:12;;;;;;;;;16.60;10.40;33.60;98.50;;;;;;5016438;28;8751;-67
2022/06/02 09:17:47;;;;;;;;;11.20;8.60;33.30;99.60;;;;;;5018538;28;8853;-71
2022/06/02 09:20:32;;;;;;;;;14.20;11.20;34.00;97.90;;;;;;5033385;28;8765;-68
2022/06/02 09:23:17;;;;;;;;;15.80;10.20;33.40;98.10;;;;;;5017266;28;8766;-72
2022/06/02 09:28:27;;;;;;;;;9.67;7.67;33.20;98.90;;;;;;4988313;27;2162823;-71
2022/06/02 09:31:20;;;;;;;;;14.40;13.20;32.70;99.10;;;;;;5017122;28;9535;-72
2022/06/02 09:33:59;;;;;;;;;21.75;12.25;32.40;99.60;;;;;;5034572;28;8760;-71
2022/06/02 09:36:44;;;;;;;;;13.60;12.60;32.40;99.90;;;;;;5017141;28;8763;-73
2022/06/02 09:39:20;;;;;;;;;14.40;11.80;32.20;99.90;;;;;;5034567;28;8763;-70
2022/06/02 09:42:14;;;;;;;;;7.80;7.80;32.30;99.90;;;;;;5034401;28;8756;-74
2022/06/02 09:44:47;;;;;;;;;15.20;11.80;32.10;99.90;;;;;;5005610;28;8754;-71
2022/06/02 09:47:52;;;;;;;;;17.25;13.00;32.10;99.90;;;;;;4993446;28;8773;-73
2022/06/02 09:50:50;;;;;;;;;26.75;22.75;32.20;99.90;;;;;;5001896;28;8888;-70
2022/06/02 09:53:32;;;;;;;;;10.80;9.40;32.10;99.60;;;;;;4955222;28;8832;-72
2022/06/02 09:56:13;;;;;;;;;19.00;11.00;32.00;99.60;;;;;;5013436;28;8733;-72
2022/06/02 09:59:18;;;;;;;;;15.40;13.60;32.00;99.40;;;;;;5027183;28;8796;-72
2022/06/02 10:01:45;;;;;;;;;11.60;11.20;31.90;99.10;;;;;;5025990;28;8881;-72
2022/06/02 10:04:20;;;;;;;;;13.00;10.60;31.80;98.90;;;;;;5034155;28;8739;-72
2022/06/02 10:07:31;;;;;;;;;16.00;11.60;31.80;98.90;;;;;;5032516;28;8786;-73
2022/06/02 10:10:27;;;;;;;;;16.20;10.00;31.90;99.40;;;;;;4992874;28;8875;-72
2022/06/02 10:13:24;;;;;;;;;17.00;10.60;31.90;99.30;;;;;;5012425;28;8754;-73
2022/06/02 10:16:16;;;;;;;;;15.40;9.20;32.10;99.20;;;;;;5032395;28;8755;-72
2022/06/02 10:18:52;;;;;;;;;16.40;14.00;32.10;99.60;;;;;;5033553;28;8747;-73
2022/06/02 10:22:06;;;;;;;;;16.40;7.60;32.10;98.50;;;;;;5032029;28;8785;-66
2022/06/02 10:24:42;;;;;;;;;16.20;11.00;32.00;98.60;;;;;;5030969;28;8764;-72
2022/06/02 10:27:52;;;;;;;;;14.80;12.20;32.00;99.10;;;;;;5032793;28;8953;-70
2022/06/02 10:30:58;;;;;;;;;12.80;8.80;32.00;99.20;;;;;;4981898;28;8797;-70
2022/06/02 10:33:44;;;;;;;;;15.40;11.00;32.10;98.70;;;;;;5038143;28;8753;-71
2022/06/02 10:36:32;;;;;;;;;18.20;12.40;32.10;99.70;;;;;;5052887;28;9409;-73
2022/06/02 10:39:02;;;;;;;;;13.80;13.40;32.10;99.20;;;;;;5044311;28;8803;-69
2022/06/02 10:41:41;;;;;;;;;17.25;12.75;32.10;99.10;;;;;;5021656;28;8945;-74
2022/06/02 10:44:15;;;;;;;;;14.60;13.80;32.10;98.80;;;;;;5039589;28;8881;-72
2022/06/02 10:46:53;;;;;;;;;17.20;12.80;32.10;99.40;;;;;;5039175;28;8785;-72
2022/06/02 10:49:27;;;;;;;;;13.00;12.80;32.10;99.20;;;;;;5040256;28;8741;-72
2022/06/02 10:52:31;;;;;;;;;15.20;12.80;32.00;99.70;;;;;;5022413;28;8783;-72
2022/06/02 10:55:19;;;;;;;;;14.60;12.20;31.90;98.80;;;;;;5039937;28;8796;-69
2022/06/02 10:57:49;;;;;;;;;18.60;13.20;31.90;99.40;;;;;;5021828;28;8761;-71
2022/06/02 11:00:21;;;;;;;;;21.00;16.60;31.90;99.30;;;;;;5021660;28;8768;-75
2022/06/02 11:03:17;;;;;;;;;19.25;16.00;31.90;99.20;;;;;;5039090;28;8761;-69
2022/06/02 11:06:01;;;;;;;;;16.75;14.00;31.90;99.50;;;;;;5021731;28;8765;-73
2022/06/02 11:08:40;;;;;;;;;18.60;17.00;31.90;99.60;;;;;;5028109;28;8813;-72
2022/06/02 11:11:35;;;;;;;;;17.00;14.40;31.90;99.60;;;;;;5038788;28;8764;-64
2022/06/02 11:14:05;;;;;;;;;19.25;14.75;31.90;99.70;;;;;;5021830;28;8834;-74
2022/06/02 11:17:08;;;;;;;;;15.00;12.80;31.80;99.50;;;;;;5039187;28;8863;-67
2022/06/02 11:20:02;;;;;;;;;19.20;13.80;31.80;99.60;;;;;;5039432;28;8791;-62
2022/06/02 11:22:44;;;;;;;;;20.60;16.00;31.80;99.90;;;;;;5022178;28;8749;-73
2022/06/02 11:25:32;;;;;;;;;18.40;14.00;31.80;99.90;;;;;;5039731;28;8764;-70
2022/06/02 11:28:35;;;;;;;;;24.00;17.00;31.80;99.40;;;;;;5039088;28;8841;-72
2022/06/02 11:31:09;;;;;;;;;24.75;15.50;31.70;99.90;;;;;;5039348;28;8777;-68
2022/06/02 11:33:57;;;;;;;;;18.00;14.75;31.80;99.90;;;;;;4988528;28;8753;-72
2022/06/02 11:36:37;;;;;;;;;19.75;13.50;31.60;99.90;;;;;;5038559;28;8765;-68
2022/06/02 11:39:23;;;;;;;;;21.25;15.25;31.60;99.90;;;;;;5005966;28;8815;-71
2022/06/02 11:42:10;;;;;;;;;14.67;12.33;31.50;99.90;;;;;;5021168;28;9132;-72
2022/06/02 11:45:03;;;;;;;;;16.50;15.75;31.40;99.90;;;;;;5001221;28;8778;-71
2022/06/02 11:48:20;;;;;;;;;23.75;15.25;31.40;99.90;;;;;;4985662;28;8771;-69
2022/06/02 11:50:52;;;;;;;;;29.25;22.75;31.40;99.90;;;;;;4964271;28;8759;-71
2022/06/02 11:53:38;;;;;;;;;43.75;35.25;31.40;99.90;;;;;;5018293;28;8774;-65
2022/06/02 11:56:30;;;;;;;;;35.75;31.50;31.40;99.70;;;;;;5018845;28;8753;-72
2022/06/02 11:59:27;;;;;;;;;46.75;36.75;31.20;99.90;;;;;;4997524;28;8763;-66
2022/06/02 12:02:08;;;;;;;;;40.25;29.75;31.30;99.90;;;;;;5018714;28;8748;-72
2022/06/02 12:04:47;;;;;;;;;38.25;33.25;31.20;99.90;;;;;;5018098;28;8751;-67
2022/06/02 12:07:35;;;;;;;;;50.25;38.75;31.10;99.90;;;;;;5019180;28;8803;-71
2022/06/02 12:10:14;;;;;;;;;43.75;34.50;31.00;99.90;;;;;;5018825;28;8784;-72
2022/06/02 12:12:56;;;;;;;;;35.50;31.25;31.00;99.90;;;;;;5004883;28;8803;-69
2022/06/02 12:15:30;;;;;;;;;28.00;18.25;30.90;99.90;;;;;;5036382;28;8764;-71
2022/06/02 12:18:11;;;;;;;;;31.25;24.50;30.90;99.90;;;;;;5020844;28;8846;-67
2022/06/02 12:21:03;;;;;;;;;20.75;20.75;30.80;99.90;;;;;;5021647;28;8804;-72
2022/06/02 12:23:33;;;;;;;;;35.00;25.00;30.70;99.90;;;;;;5037357;28;8741;-68
2022/06/02 12:26:05;;;;;;;;;30.00;24.00;30.80;99.90;;;;;;5037431;28;8787;-70
2022/06/02 12:29:01;;;;;;;;;38.25;30.25;30.90;99.90;;;;;;5032328;28;8902;-68
2022/06/02 12:32:01;;;;;;;;;40.75;32.25;30.90;99.90;;;;;;5003063;28;8865;-69
2022/06/02 12:34:40;;;;;;;;;44.00;32.00;31.00;99.90;;;;;;5017714;28;9329;-68
2022/06/02 12:37:07;;;;;;;;;46.50;35.00;30.90;99.90;;;;;;5018629;28;9497;-68
2022/06/02 12:39:40;;;;;;;;;46.75;33.75;30.80;99.90;;;;;;5017395;28;8789;-72
2022/06/02 12:42:38;;;;;;;;;38.00;29.25;30.70;99.90;;;;;;5017418;28;9481;-64
2022/06/02 12:45:38;;;;;;;;;45.25;32.75;30.80;99.90;;;;;;4983214;28;9416;-73
2022/06/02 12:48:32;;;;;;;;;45.75;32.75;30.70;99.90;;;;;;4997980;28;8781;-66
2022/06/02 12:51:03;;;;;;;;;51.00;37.50;30.70;99.90;;;;;;4998282;28;9027;-73
2022/06/02 12:53:47;;;;;;;;;52.25;36.75;30.60;99.90;;;;;;4998244;28;8769;-64
2022/06/02 12:56:26;;;;;;;;;57.00;42.75;30.60;99.90;;;;;;4997406;28;8769;-72
2022/06/02 12:59:13;;;;;;;;;60.50;42.75;30.70;99.90;;;;;;5026255;28;8781;-67
2022/06/02 13:01:50;;;;;;;;;52.75;42.00;30.60;99.90;;;;;;5015829;28;8743;-71
2022/06/02 13:04:26;;;;;;;;;55.50;40.50;30.60;99.90;;;;;;5016904;28;9415;-71
2022/06/02 13:07:17;;;;;;;;;51.50;40.25;30.60;99.90;;;;;;5017559;28;8852;-68
2022/06/02 13:10:13;;;;;;;;;55.00;40.25;30.50;99.90;;;;;;5017575;28;8798;-74
2022/06/02 13:13:01;;;;;;;;;52.75;40.50;30.50;99.90;;;;;;5015913;28;8778;-60
2022/06/02 13:15:37;;;;;;;;;44.25;34.75;30.60;99.90;;;;;;5017269;28;8771;-74
2022/06/02 13:18:38;;;;;;;;;51.75;40.00;30.60;99.90;;;;;;5016391;28;8751;-71
2022/06/02 13:21:33;;;;;;;;;50.75;38.25;30.50;99.90;;;;;;4997574;28;8775;-64
2022/06/02 13:24:24;;;;;;;;;47.00;37.75;30.50;99.90;;;;;;5016057;28;8887;-75
2022/06/02 13:26:55;;;;;;;;;49.00;38.50;30.20;99.90;;;;;;5015911;28;8870;-69
2022/06/02 13:29:25;;;;;;;;;53.00;39.00;30.10;99.90;;;;;;4995638;28;8860;-62
2022/06/02 13:32:10;;;;;;;;;50.50;36.50;30.10;99.90;;;;;;4995751;28;8823;-69
2022/06/02 13:35:04;;;;;;;;;42.00;32.25;30.20;99.90;;;;;;4997596;28;8761;-69
2022/06/02 13:38:01;;;;;;;;;47.00;35.25;30.20;99.90;;;;;;4997288;28;9914;-67
2022/06/02 13:40:58;;;;;;;;;45.50;32.75;30.40;99.90;;;;;;4971562;28;8754;-73
2022/06/02 13:44:06;;;;;;;;;49.25;38.25;30.40;99.90;;;;;;5007470;28;8782;-61
2022/06/02 13:47:09;;;;;;;;;47.75;35.75;30.20;99.90;;;;;;5003827;28;8815;-68
2022/06/02 13:50:00;;;;;;;;;48.00;36.00;29.90;99.90;;;;;;5016930;28;8750;-67
2022/06/02 13:53:03;;;;;;;;;49.25;38.00;30.00;99.90;;;;;;5017031;28;8840;-59
2022/06/02 13:58:32;;;;;;;;;49.50;38.25;30.10;99.90;;;;;;5016394;28;8763;-70
2022/06/02 14:01:09;;;;;;;;;45.00;35.00;30.10;99.90;;;;;;5017629;28;8783;-66
2022/06/02 14:03:54;;;;;;;;;44.75;34.75;30.00;99.90;;;;;;5015609;28;8751;-68
2022/06/02 14:06:23;;;;;;;;;30.75;22.50;30.00;99.90;;;;;;5016564;28;8790;-71
2022/06/02 14:09:27;;;;;;;;;38.25;32.75;29.90;99.90;;;;;;5015298;28;8743;-75
2022/06/02 14:12:21;;;;;;;;;45.00;35.25;30.00;99.90;;;;;;5015606;28;8789;-59
2022/06/02 14:15:13;;;;;;;;;38.00;32.00;30.00;99.90;;;;;;5000003;28;8758;-75
2022/06/02 14:18:12;;;;;;;;;45.75;33.50;29.90;99.90;;;;;;4999680;28;8758;-59
2022/06/02 14:21:30;;;;;;;;;38.00;30.75;29.80;99.90;;;;;;4979711;28;8888;-74
2022/06/02 14:24:00;;;;;;;;;38.50;29.25;29.90;99.90;;;;;;4991663;28;8808;-51
2022/06/02 14:26:42;;;;;;;;;34.50;28.00;30.00;99.90;;;;;;5001239;28;8868;-74
2022/06/02 14:29:24;;;;;;;;;30.25;24.25;29.80;99.90;;;;;;5036722;28;8760;-73